createdAt,value
2023-03-23T15:58:36.535Z,6.47
2023-03-23T16:01:11.831Z,3.50
2023-03-23T16:04:06.530Z,4.80
2023-03-23T16:06:34.851Z,4.27
2023-03-23T16:09:03.482Z,6.90
2023-03-23T16:11:31.726Z,3.20
2023-03-23T16:13:59.679Z,4.60
2023-03-23T16:16:29.887Z,8.87
2023-03-23T16:18:57.633Z,4.87
2023-03-23T16:21:25.557Z,4.17
2023-03-23T16:23:53.288Z,4.90
2023-03-23T16:26:21.135Z,25.87
2023-03-23T16:28:49.007Z,9.73
2023-03-23T16:31:17.317Z,5.67
2023-03-23T16:33:45.324Z,6.97
2023-03-23T16:36:13.377Z,16.30
2023-03-23T16:38:48.980Z,5.50
2023-03-23T16:41:18.918Z,4.63
2023-03-23T16:43:46.581Z,5.67
2023-03-23T16:46:14.388Z,3.60
2023-03-23T16:48:42.283Z,4.57
2023-03-23T16:51:10.018Z,5.30
2023-03-23T16:53:37.808Z,8.63
2023-03-23T16:56:06.022Z,14.50
2023-03-23T16:58:33.780Z,12.03
2023-03-23T17:01:01.543Z,5.73
2023-03-23T17:03:29.472Z,7.33
2023-03-23T17:05:59.333Z,4.27
2023-03-23T17:08:27.237Z,8.50
2023-03-23T17:10:54.921Z,3.53
2023-03-23T17:13:22.845Z,5.47
2023-03-23T17:15:52.864Z,7.50
2023-03-23T17:18:21.085Z,6.87
2023-03-23T17:20:48.948Z,5.10
2023-03-23T17:23:17.653Z,5.03
2023-03-23T17:25:46.859Z,7.90
2023-03-23T17:28:16.265Z,8.17
2023-03-23T17:30:44.831Z,7.00
2023-03-23T17:33:12.833Z,5.80
2023-03-23T17:35:40.586Z,9.33
2023-03-23T17:38:08.396Z,6.63
2023-03-23T17:40:36.096Z,23.07
2023-03-23T17:43:03.790Z,11.30
2023-03-23T17:45:31.564Z,10.27
2023-03-23T17:47:59.395Z,10.87
2023-03-23T17:50:27.305Z,12.37
2023-03-23T17:52:57.079Z,10.67
2023-03-23T17:55:24.956Z,14.73
2023-03-23T17:57:52.734Z,18.87
2023-03-23T18:00:20.914Z,17.70
2023-03-23T18:02:48.689Z,22.73
2023-03-23T18:05:16.578Z,21.60
2023-03-23T18:07:44.342Z,18.33
2023-03-23T18:10:13.123Z,11.40
2023-03-23T18:12:41.602Z,11.07
2023-03-23T18:15:09.847Z,8.77
2023-03-23T18:17:37.662Z,8.87
2023-03-23T18:20:06.455Z,18.27
2023-03-23T18:22:34.185Z,21.33
2023-03-23T18:25:02.840Z,16.87
2023-03-23T18:27:30.680Z,12.17
2023-03-23T18:29:58.615Z,44.57
2023-03-23T18:32:27.628Z,31.57
2023-03-23T18:34:56.058Z,24.80
2023-03-23T18:37:23.752Z,14.73
2023-03-23T18:39:53.630Z,23.60
2023-03-23T18:42:21.399Z,37.90
2023-03-23T18:44:49.279Z,54.97
2023-03-23T18:47:17.039Z,38.20
2023-03-23T18:49:47.391Z,41.20
2023-03-23T18:52:15.064Z,38.17
2023-03-23T18:54:45.257Z,30.77
2023-03-23T18:57:13.026Z,25.60
2023-03-23T18:59:40.772Z,28.80
2023-03-23T19:02:10.049Z,25.13
2023-03-23T19:04:38.143Z,20.63
2023-03-23T19:07:05.908Z,19.27
2023-03-23T19:09:34.780Z,13.97
2023-03-23T19:12:02.558Z,12.87
2023-03-23T19:14:30.445Z,17.10
2023-03-23T19:16:58.148Z,15.07
2023-03-23T19:19:27.039Z,14.67
2023-03-23T19:21:55.237Z,11.27
2023-03-23T19:24:23.026Z,13.83
2023-03-23T19:26:50.746Z,19.57
2023-03-23T19:29:26.806Z,23.00
2023-03-23T19:31:55.871Z,25.53
2023-03-23T19:34:24.483Z,21.93
2023-03-23T19:36:56.399Z,23.33
2023-03-23T19:39:32.178Z,27.97
2023-03-23T19:42:00.103Z,25.63
2023-03-23T19:44:28.855Z,28.07
2023-03-23T19:46:57.268Z,27.67
2023-03-23T19:49:25.502Z,28.03
2023-03-23T19:52:05.217Z,32.90
2023-03-23T19:54:38.897Z,25.60
2023-03-23T19:57:07.434Z,25.97
2023-03-23T19:59:36.304Z,40.53
2023-03-23T20:02:04.398Z,33.03
2023-03-23T20:04:32.284Z,22.43
2023-03-23T20:07:00.563Z,24.07
2023-03-23T20:09:28.720Z,25.77
2023-03-23T20:11:57.338Z,20.67
2023-03-23T20:14:25.781Z,14.47
2023-03-23T20:16:53.912Z,16.40
2023-03-23T20:19:22.021Z,19.27
2023-03-23T20:21:49.770Z,15.13
2023-03-23T20:24:17.666Z,12.77
2023-03-23T20:26:45.573Z,12.57
2023-03-23T20:29:13.276Z,14.40
2023-03-23T20:31:41.358Z,12.00
2023-03-23T20:34:11.755Z,11.77
2023-03-23T20:36:42.271Z,12.57
2023-03-23T20:39:19.001Z,12.50
2023-03-23T20:41:48.502Z,17.43
2023-03-23T20:44:17.091Z,11.30
2023-03-23T20:46:45.836Z,10.17
2023-03-23T20:49:13.924Z,9.37
2023-03-23T20:51:41.798Z,9.13
2023-03-23T20:54:10.218Z,7.53
2023-03-23T20:56:40.437Z,17.10
2023-03-23T20:59:08.908Z,8.13
2023-03-23T21:01:36.994Z,11.43
2023-03-23T21:04:04.744Z,10.87
2023-03-23T21:06:34.014Z,10.10
2023-03-23T21:09:01.866Z,14.67
2023-03-23T21:11:30.185Z,8.10
2023-03-23T21:13:57.886Z,11.50
2023-03-23T21:16:25.682Z,19.13
2023-03-23T21:18:53.916Z,8.53
2023-03-23T21:21:21.912Z,10.17
2023-03-23T21:23:52.772Z,8.57
2023-03-23T21:26:25.007Z,7.97
2023-03-23T21:28:54.083Z,15.23
2023-03-23T21:31:23.456Z,12.03
2023-03-23T21:33:51.383Z,14.67
2023-03-23T21:36:19.095Z,13.73
2023-03-23T21:38:50.119Z,14.27
2023-03-23T21:41:18.016Z,9.67
2023-03-23T21:43:50.068Z,10.87
2023-03-23T21:46:18.313Z,9.27
2023-03-23T21:48:51.397Z,8.47
2023-03-23T21:51:24.903Z,5.87
2023-03-23T21:53:55.861Z,6.93
2023-03-23T21:56:25.437Z,9.50
2023-03-23T21:58:53.211Z,9.97
2023-03-23T22:01:21.423Z,9.50
2023-03-23T22:03:49.314Z,9.60
2023-03-23T22:06:19.197Z,10.23
2023-03-23T22:08:47.139Z,8.60
2023-03-23T22:11:20.921Z,9.13
2023-03-23T22:13:52.187Z,6.17
2023-03-23T22:16:20.868Z,9.13
2023-03-23T22:18:49.153Z,6.87
2023-03-23T22:21:17.306Z,5.23
2023-03-23T22:23:45.548Z,7.53
2023-03-23T22:26:14.413Z,5.30
2023-03-23T22:28:42.940Z,2.87
2023-03-23T22:31:17.576Z,2.83
2023-03-23T22:33:46.192Z,2.30
2023-03-23T22:36:14.103Z,3.73
2023-03-23T22:38:43.454Z,3.87
2023-03-23T22:41:34.263Z,6.07
2023-03-23T22:44:02.051Z,6.10
2023-03-23T22:46:29.847Z,7.03
2023-03-23T22:48:57.981Z,5.23
2023-03-23T22:51:25.877Z,3.83
2023-03-23T22:53:53.588Z,3.80
2023-03-23T22:56:21.706Z,3.70
2023-03-23T22:58:49.449Z,6.17
2023-03-23T23:01:19.142Z,5.93
2023-03-23T23:03:46.941Z,5.70
2023-03-23T23:06:15.742Z,6.07
2023-03-23T23:08:43.772Z,4.80
2023-03-23T23:11:12.857Z,5.83
2023-03-23T23:13:41.313Z,3.27
2023-03-23T23:16:09.678Z,4.10
2023-03-23T23:18:37.643Z,7.10
2023-03-23T23:21:07.488Z,5.27
2023-03-23T23:23:36.115Z,7.57
2023-03-23T23:26:04.008Z,5.43
2023-03-23T23:28:31.793Z,8.97
2023-03-23T23:30:59.713Z,6.13
2023-03-23T23:33:27.760Z,6.43
2023-03-23T23:35:56.400Z,9.03
2023-03-23T23:38:24.479Z,7.70
2023-03-23T23:40:52.277Z,7.77
2023-03-23T23:43:20.050Z,7.03
2023-03-23T23:45:47.813Z,5.67
2023-03-23T23:48:15.683Z,5.57
2023-03-23T23:50:43.551Z,6.17
2023-03-23T23:53:12.982Z,9.80
2023-03-23T23:55:40.902Z,7.13
2023-03-23T23:58:08.649Z,5.67
